Terminal Aerodrome Forecast
Issued by NWS Amarillo, TX

Home | Current Version | Previous Version | Text Only | Print | Product List | Glossary On
Versions: 1 2 3 4 5 6 7 8 9 10 11 12 13
000
FTUS44 KAMA 201100
TAFGUY
TAF
KGUY 201120Z 2012/2112 18010KT P6SM SCT250
     FM201500 19019G28KT P6SM SCT070 SCT250
     FM210100 18013KT P6SM SCT100=

USA.gov is the U.S. government's official web portal to all federal, state and local government web resources and services.